Latest Weather Observations for Maatsuyker Island

IDT60801

Issued at 8:35 am EDT Tuesday 21 October 2014 (issued every 30 minutes, with the page automatically refreshed every 10 minutes)

About weather observations | Map of weather stations | Latest weather observations for TAS | Other Formats
Station Details ID: 094041 Name: MAATSUYKER ISLAND LIGHTHOUSE Lat: -43.66 Lon: 146.27 Height: 146.5 m
Data from the previous 72 hours. | See also: Recent months at Maatsuyker Island
Date/Time
EDT
Temp
°C
App
Temp
°C
Dew
Point
Rel
Hum
%
Delta-T
°C
Wind Press
QNH
hPa
Press
MSL
hPa
Rain
since 9 am
mm
Dir
 
Spd
km/h
Gust
km/h
Spd
kts
Gust
kts
21/08:30am 8.6 5.8 5.0 78 1.6 N 9 13 5 7 1032.7 - 0.0
21/08:00am 7.9 4.7 5.2 83 1.2 N 11 13 6 7 1032.7 - 0.0
21/07:30am 7.9 3.9 5.0 82 1.3 N 15 20 8 11 1032.6 - 0.0
21/07:00am 7.8 3.8 4.8 81 1.3 N 15 19 8 10 1032.4 - 0.0
21/06:30am 7.6 3.2 4.9 83 1.2 N 17 20 9 11 1032.3 - 0.0
21/06:00am 7.7 4.0 4.5 80 1.4 N 13 22 7 12 1032.0 1032.2 0.0
21/05:30am 7.2 3.6 5.2 87 0.9 N 13 17 7 9 1032.0 - 0.0
21/05:00am 7.4 3.4 4.7 83 1.2 N 15 19 8 10 1031.8 - 0.0
21/04:30am 7.3 3.2 4.3 81 1.3 N 15 19 8 10 1031.8 - 0.0
21/04:00am 7.6 3.9 4.6 81 1.3 N 13 17 7 9 1032.0 - 0.0
21/03:30am 7.6 3.6 4.9 83 1.2 N 15 19 8 10 1032.0 - 0.0
21/03:00am 7.6 3.5 4.4 80 1.4 N 15 17 8 9 1032.1 1032.3 0.0
21/02:30am 8.0 5.5 3.6 74 1.9 NNE 6 7 3 4 1032.2 - 0.0
21/02:00am 8.3 4.5 3.9 74 1.9 ENE 13 19 7 10 1032.2 - 0.0
21/01:30am 7.9 5.3 3.4 73 1.9 NW 6 9 3 5 1032.4 - 0.0
21/01:00am 7.9 5.1 2.9 70 2.1 NNW 7 13 4 7 1032.9 - 0.0
21/12:30am 7.7 4.7 2.1 67 2.3 WNW 7 15 4 8 1032.8 - 0.0
21/12:00am 7.7 4.2 1.5 65 2.5 NNW 9 15 5 8 1033.1 1033.2 0.0
 
Date/Time
EDT
Temp
°C
App
Temp
°C
Dew
Point
Rel
Hum
%
Delta-T
°C
Wind Press
QNH
hPa
Press
MSL
hPa
Rain
since 9 am
mm
Dir
 
Spd
km/h
Gust
km/h
Spd
kts
Gust
kts
20/11:30pm 7.5 4.4 1.6 66 2.4 WNW 7 13 4 7 1033.3 - 0.0
20/11:00pm 7.4 4.3 1.2 65 2.5 NW 7 15 4 8 1033.6 - 0.0
20/10:30pm 7.3 4.7 1.0 64 2.5 NNE 4 9 2 5 1033.9 - 0.0
20/10:00pm 7.4 5.6 0.9 63 2.6 CALM 0 4 0 2 1034.5 - 0.0
20/09:30pm 7.4 4.7 0.6 62 2.7 NE 4 9 2 5 1034.5 - 0.0
20/09:00pm 7.2 4.9 0.6 63 2.6 SE 2 11 1 6 1034.7 1034.8 0.0
20/08:30pm 7.7 3.0 0.7 61 2.8 S 15 19 8 10 1034.3 - 0.0
20/08:00pm 7.8 3.1 0.8 61 2.8 SSW 15 20 8 11 1034.2 - 0.0
20/07:30pm 8.5 4.5 0.8 58 3.1 SW 11 17 6 9 1034.2 - 0.0
20/07:00pm 9.1 4.4 0.7 55 3.4 SSW 15 20 8 11 1034.0 - 0.0
20/06:30pm 9.7 4.6 0.6 53 3.7 SSW 17 24 9 13 1034.0 - 0.0
20/06:00pm 10.6 6.0 1.8 54 3.7 W 15 24 8 13 1034.1 1034.3 0.0
20/05:30pm 11.2 6.0 2.3 54 3.8 W 19 24 10 13 1034.2 - 0.0
20/05:00pm 11.2 6.3 2.0 53 4.0 W 17 22 9 12 1034.1 - 0.0
20/04:30pm 10.8 6.0 2.4 56 3.6 W 17 22 9 12 1033.9 - 0.0
20/04:00pm 10.7 5.8 1.9 54 3.8 W 17 22 9 12 1034.0 - 0.0
20/03:30pm 11.6 6.2 2.3 53 4.0 W 20 28 11 15 1034.1 - 0.0
20/03:00pm 11.0 6.8 1.8 53 3.9 SW 13 26 7 14 1034.0 1034.2 0.0
20/02:30pm 11.4 6.7 2.9 56 3.7 W 17 22 9 12 1034.1 - 0.0
20/02:00pm 10.7 5.7 1.3 52 4.0 W 17 24 9 13 1034.2 - 0.0
20/01:30pm 10.6 5.2 1.2 52 3.9 W 19 24 10 13 1034.4 - 0.0
20/01:00pm 10.7 5.0 0.4 49 4.2 W 20 28 11 15 1034.6 - 0.0
20/12:30pm 10.3 4.6 0.8 51 3.9 W 20 26 11 14 1034.7 - 0.0
20/12:00pm 9.3 3.9 1.5 58 3.2 W 19 24 10 13 1034.8 1035.0 0.0
20/11:30am 8.6 3.3 2.1 63 2.7 WNW 19 24 10 13 1034.7 - 0.0
20/11:00am 9.4 5.2 1.4 57 3.3 NW 13 19 7 10 1034.4 - 0.0
20/10:30am 8.6 3.8 2.4 65 2.6 W 17 24 9 13 1034.3 - 0.0
20/10:00am 8.9 3.7 2.2 63 2.8 WSW 19 24 10 13 1033.9 - 0.0
20/09:30am 9.2 4.9 0.8 55 3.4 WSW 13 19 7 10 1033.8 - 0.0
20/09:00am 8.3 4.2 -0.4 54 3.4 SW 11 20 6 11 1033.4 1033.6 2.4
20/08:30am 8.3 3.5 0.2 56 3.2 SW 15 22 8 12 1033.1 - 2.4
20/08:00am 7.4 2.5 -0.4 57 3.0 SSW 15 32 8 17 1032.7 - 2.4
20/07:30am 7.4 2.0 1.2 65 2.5 S 19 24 10 13 1032.2 - 2.4
20/07:00am 7.2 3.1 -0.3 59 2.9 S 11 22 6 12 1031.7 - 2.4
20/06:30am 7.0 -0.1 -1.2 56 3.1 S 26 32 14 17 1031.5 - 2.4
20/06:00am 7.4 2.5 -0.3 58 3.0 SW 15 30 8 16 1031.1 1031.1 2.4
20/05:30am 7.3 0.2 -1.1 55 3.2 SSW 26 37 14 20 1030.8 - 2.4
20/05:00am 7.3 0.9 -1.8 52 3.4 SW 22 33 12 18 1030.3 - 2.4
20/04:30am 7.0 0.0 -3.3 48 3.7 SW 24 32 13 17 1029.9 - 2.4
20/04:00am 7.1 0.4 -1.1 56 3.1 SW 24 32 13 17 1029.8 - 2.4
20/03:30am 7.3 0.7 -0.5 57 3.0 WSW 24 35 13 19 1029.5 - 2.4
20/03:07am 7.5 -0.1 0.4 61 2.8 SSW 30 48 16 26 1029.3 - 2.4
20/03:00am 7.4 -0.2 -2.0 51 3.5 SSW 28 37 15 20 1029.3 1029.4 2.4
20/02:30am 7.1 -0.5 -2.4 51 3.5 SSW 28 39 15 21 1029.2 - 2.4
20/02:00am 7.2 -1.5 -3.0 48 3.7 SSW 33 43 18 23 1029.0 - 2.4
20/01:48am 7.1 -0.6 -3.2 48 3.7 SW 28 46 15 25 1028.9 - 2.4
20/01:30am 7.1 -2.8 -3.9 45 3.9 SSW 39 44 21 24 1028.6 - 2.4
20/01:00am 7.3 -1.5 -1.5 53 3.3 SSW 35 44 19 24 1028.4 - 2.4
20/12:30am 7.2 -1.8 -3.0 48 3.7 SSW 35 50 19 27 1028.2 - 2.4
20/12:00am 7.4 -0.4 -1.0 55 3.2 SSW 30 48 16 26 1027.9 1027.9 2.4
 
Date/Time
EDT
Temp
°C
App
Temp
°C
Dew
Point
Rel
Hum
%
Delta-T
°C
Wind Press
QNH
hPa
Press
MSL
hPa
Rain
since 9 am
mm
Dir
 
Spd
km/h
Gust
km/h
Spd
kts
Gust
kts
19/11:58pm 7.4 -0.4 -1.0 55 3.2 SSW 30 48 16 26 1027.7 - 2.4
19/11:30pm 7.0 -1.5 -1.5 54 3.2 SSW 33 46 18 25 1027.4 - 2.4
19/11:00pm 7.0 -1.5 -1.9 53 3.3 SW 33 43 18 23 1027.0 - 2.4
19/10:30pm 7.1 -1.5 -0.1 60 2.8 SSW 35 54 19 29 1026.6 - 2.4
19/10:00pm 7.2 -1.9 -0.6 57 3.0 SSW 37 50 20 27 1026.2 - 2.4
19/09:43pm 7.2 -2.7 -0.9 56 3.1 SW 41 59 22 32 1025.8 - 2.4
19/09:30pm 7.1 -3.3 -0.4 59 2.9 SSW 44 57 24 31 1025.4 - 2.4
19/09:14pm 7.0 -1.4 1.3 67 2.3 SSW 35 59 19 32 1025.3 - 2.4
19/09:00pm 7.2 -5.1 2.9 74 1.8 SSW 57 67 31 36 1024.6 1024.7 2.4
19/08:52pm 7.7 -3.5 2.1 67 2.3 SSW 50 61 27 33 1024.5 - 2.4
19/08:48pm 7.9 -0.9 -0.9 54 3.4 W 35 54 19 29 1024.6 - 2.4
19/08:30pm 7.9 -1.4 -2.3 48 3.8 WSW 37 54 20 29 1024.0 - 2.4
19/08:00pm 7.9 -1.1 0.4 59 3.0 WSW 37 56 20 30 1022.9 - 2.4
19/07:55pm 7.6 0.5 1.2 64 2.6 W 28 46 15 25 1022.8 - 2.4
19/07:42pm 6.8 -1.7 0.8 65 2.4 W 35 69 19 37 1022.5 - 2.4
19/07:39pm 6.6 -4.7 1.4 69 2.1 SW 50 69 27 37 1022.6 - 2.4
19/07:37pm 6.7 -5.3 1.5 69 2.1 SSW 54 69 29 37 1022.4 - 2.4
19/07:33pm 8.2 -0.9 -0.8 53 3.5 W 37 56 20 30 1022.4 - 2.4
19/07:30pm 8.1 -1.1 -1.0 52 3.5 W 37 52 20 28 1022.2 - 2.4
19/07:14pm 8.5 -0.2 -0.7 52 3.6 W 35 54 19 29 1021.9 - 2.4
19/07:00pm 8.5 -1.9 -1.7 48 3.9 WSW 43 57 23 31 1021.5 - 2.4
19/06:30pm 7.9 -2.1 0.7 60 2.9 WSW 43 69 23 37 1021.0 - 2.4
19/06:20pm 8.1 -1.1 1.2 62 2.8 W 39 57 21 31 1021.0 - 2.4
19/06:00pm 8.1 0.4 2.1 66 2.5 W 32 44 17 24 1020.3 1020.4 2.4
19/05:30pm 8.0 -0.4 3.9 75 1.8 WSW 37 56 20 30 1019.6 - 2.4
19/05:20pm 8.1 0.0 3.5 73 2.0 W 35 54 19 29 1019.3 - 2.4
19/05:00pm 8.1 0.5 4.0 75 1.8 W 33 46 18 25 1019.3 - 2.4
19/04:30pm 7.6 -0.5 5.4 86 1.0 WSW 37 50 20 27 1018.8 - 2.4
19/04:15pm 7.3 -1.9 5.5 88 0.8 W 43 65 23 35 1018.5 - 2.4
19/04:06pm 7.9 -2.0 5.0 82 1.3 WNW 46 65 25 35 1018.5 - 2.2
19/04:00pm 8.3 -1.6 4.9 79 1.5 WNW 46 56 25 30 1018.2 - 2.2
19/03:30pm 8.1 0.1 5.7 85 1.1 W 37 44 20 24 1018.2 - 2.2
19/03:00pm 8.4 -0.6 6.2 86 1.0 W 43 56 23 30 1017.5 1017.7 2.2
19/02:30pm 8.3 -1.3 6.4 88 0.9 WNW 46 57 25 31 1017.7 - 2.0
19/02:00pm 8.9 -1.6 7.2 89 0.8 NW 52 61 28 33 1017.2 - 1.4
19/01:30pm 8.8 -3.0 7.5 91 0.6 NW 59 69 32 37 1016.9 - 1.0
19/01:00pm 8.8 -3.1 6.9 88 0.9 NW 59 72 32 39 1016.7 - 0.8
19/12:30pm 9.3 -3.1 6.3 81 1.4 NW 61 69 33 37 1016.4 - 0.2
19/12:00pm 9.9 -0.6 7.4 84 1.2 WNW 52 63 28 34 1016.2 1016.4 0.2
19/11:30am 9.6 -0.4 7.7 88 0.9 WNW 50 61 27 33 1016.7 - 0.2
19/11:11am 10.0 -0.1 8.8 92 0.6 WNW 52 72 28 39 1016.8 - 0.2
19/11:00am 11.1 -1.1 8.9 86 1.1 NW 63 72 34 39 1015.3 - 0.2
19/10:30am 11.0 -1.7 8.4 84 1.3 NW 65 76 35 41 1015.2 - 0.2
19/10:00am 10.9 -0.8 9.3 90 0.8 NW 61 72 33 39 1014.7 - 0.2
19/09:30am 10.8 -1.2 9.8 93 0.5 NW 63 72 34 39 1014.5 - 0.0
19/09:00am 11.2 1.3 9.8 91 0.7 WNW 52 65 28 35 1014.1 1014.1 0.2
19/08:30am 11.2 -0.1 9.6 90 0.8 NW 59 69 32 37 1013.6 - 0.2
19/08:00am 11.3 -1.1 9.5 89 0.9 NW 65 76 35 41 1013.6 - 0.2
19/07:30am 11.4 -0.9 10.0 91 0.7 NW 65 78 35 42 1013.1 - 0.2
19/07:00am 11.5 0.3 9.7 89 0.9 NNW 59 70 32 38 1013.4 - 0.2
19/06:30am 11.5 -1.3 9.7 89 0.9 NW 67 76 36 41 1012.7 - 0.2
19/06:00am 11.3 0.7 10.1 92 0.6 NW 56 78 30 42 1012.3 1012.3 0.2
19/05:30am 11.2 -1.8 10.2 94 0.5 NW 69 76 37 41 1011.9 - 0.2
19/05:00am 11.1 -0.9 11.1 100 0.0 NW 65 76 35 41 1011.4 - 0.2
19/04:30am 11.5 -1.4 11.1 97 0.2 NW 70 78 38 42 1011.2 - 0.0
19/04:00am 12.5 0.6 11.4 93 0.6 NNW 65 78 35 42 1011.0 - 0.0
19/03:34am 13.1 0.3 11.0 87 1.1 NNW 69 87 37 47 1011.1 - 0.0
19/03:30am 13.2 0.2 10.9 86 1.2 NNW 70 87 38 47 1011.1 - 0.0
19/03:16am 13.4 0.5 10.5 82 1.5 NNW 69 87 37 47 1011.0 - 0.0
19/03:00am 13.7 0.2 10.3 80 1.8 NNW 72 87 39 47 1010.7 1010.9 0.0
19/02:30am 14.4 -0.2 9.2 71 2.7 NNW 76 91 41 49 1010.5 - 0.0
19/02:16am 14.6 0.6 8.5 67 3.1 NNW 72 93 39 50 1010.5 - 0.0
19/02:00am 14.7 0.6 8.2 65 3.3 NNW 72 83 39 45 1010.5 - 0.0
19/01:30am 16.2 -0.4 6.5 52 4.8 NNW 83 107 45 58 1009.7 - 0.0
19/01:00am 16.3 1.7 5.8 50 5.1 NNW 72 95 39 51 1009.9 - 0.0
19/12:30am 15.5 2.5 7.0 57 4.2 NNW 65 83 35 45 1010.4 - 0.0
19/12:00am 18.9 5.7 2.6 33 7.6 NNW 61 80 33 43 1010.6 1010.8 0.0
 
Date/Time
EDT
Temp
°C
App
Temp
°C
Dew
Point
Rel
Hum
%
Delta-T
°C
Wind Press
QNH
hPa
Press
MSL
hPa
Rain
since 9 am
mm
Dir
 
Spd
km/h
Gust
km/h
Spd
kts
Gust
kts
18/11:38pm 18.5 7.2 3.2 36 7.2 NNW 52 70 28 38 1011.1 - 0.0
18/11:30pm 18.6 7.2 2.7 34 7.4 NNW 52 69 28 37 1011.0 - 0.0
18/11:00pm 17.8 6.7 4.7 42 6.3 NNW 52 67 28 36 1010.9 - 0.0
18/10:45pm 17.5 6.2 5.4 45 5.9 NNW 54 72 29 39 1011.0 - 0.0
18/10:30pm 17.5 6.3 5.7 46 5.8 NNW 54 67 29 36 1011.2 - 0.0
18/10:00pm 17.3 6.9 5.9 47 5.6 NNW 50 65 27 35 1011.8 - 0.0
18/09:30pm 17.1 6.8 6.4 49 5.3 NNW 50 65 27 35 1012.2 - 0.0
18/09:04pm 17.1 7.1 6.1 48 5.4 NNW 48 67 26 36 1012.5 - 0.0
18/09:00pm 17.2 7.2 6.0 47 5.5 NNW 48 65 26 35 1012.3 1012.4 0.0
18/08:30pm 16.9 6.3 6.9 51 5.0 NNW 52 72 28 39 1012.2 - 0.0
18/08:16pm 16.7 7.6 6.9 52 4.9 NNW 44 67 24 36 1012.2 - 0.0
18/08:00pm 16.2 8.2 7.4 56 4.4 NNW 39 54 21 29 1012.6 - 0.0
18/07:30pm 16.2 9.5 7.4 56 4.4 NNW 32 44 17 24 1013.1 - 0.0
18/07:00pm 16.5 9.2 7.1 53 4.7 NNW 35 54 19 29 1013.8 - 0.0
18/06:36pm 16.7 9.3 6.9 52 4.9 N 35 54 19 29 1014.3 - 0.0
18/06:30pm 17.1 9.0 6.9 51 5.1 NNW 39 54 21 29 1014.3 - 0.0
18/06:00pm 16.5 9.2 7.3 54 4.6 NNW 35 46 19 25 1014.9 1015.1 0.0
18/05:30pm 16.4 7.8 6.5 52 4.9 NNW 41 56 22 30 1015.8 - 0.0
18/05:00pm 16.4 8.1 5.9 50 5.1 NNW 39 52 21 28 1015.9 - 0.0
18/04:30pm 16.1 8.8 5.3 48 5.2 NNW 33 43 18 23 1016.4 - 0.0
18/04:00pm 16.4 8.0 3.7 42 5.9 NNW 37 50 20 27 1016.5 - 0.0
18/03:30pm 16.6 8.5 3.4 41 6.1 NNW 35 46 19 25 1016.9 - 0.0
18/03:00pm 16.9 10.3 4.2 43 6.0 NW 28 41 15 22 1017.3 1017.5 0.0
18/02:30pm 16.9 8.8 3.3 40 6.3 NNW 35 48 19 26 1018.0 - 0.0
18/02:00pm 16.0 9.4 2.2 39 6.2 NNW 26 37 14 20 1018.9 - 0.0
18/01:30pm 14.4 9.8 6.3 58 3.9 NNW 20 26 11 14 1019.6 - 0.0
18/01:00pm 14.0 9.2 5.6 57 4.0 NNW 20 26 11 14 1019.9 - 0.0
18/12:30pm 15.3 11.6 4.7 49 5.0 NW 13 19 7 10 1020.4 - 0.0
18/12:00pm 14.9 12.0 6.5 57 4.1 WNW 11 19 6 10 1020.3 1020.4 0.0
18/11:30am 14.6 11.4 5.3 53 4.4 NNW 11 17 6 9 1020.3 - 0.0
18/11:00am 15.1 9.6 0.7 37 6.2 N 19 24 10 13 1020.2 - 0.0
18/10:30am 13.7 8.8 2.1 45 5.1 N 17 26 9 14 1020.7 - 0.0
18/10:00am 12.7 8.3 2.7 50 4.4 N 15 22 8 12 1021.5 - 0.0
18/09:30am 12.0 8.1 3.2 55 3.9 N 13 22 7 12 1022.0 - 0.0
18/09:00am 11.2 8.0 3.2 58 3.5 N 9 20 5 11 1022.2 1022.4 0.6

Other Formats:

Comma delimited format used in spreadsheet applications
http://www.bom.gov.au/fwo/IDT60801/IDT60801.94962.axf

JavaScript Object Notation format (JSON) in row-major order
http://www.bom.gov.au/fwo/IDT60801/IDT60801.94962.json